Terminal Aerodrome Forecast
Issued by NWS

Home | Current Version | Previous Version | Text Only | Print | Product List | Glossary On
Versions: 1 2 3 4 5 6 7 8 9 10 11 12 13 14 15 16 17 18 19 20 21 22 23
000
FTUS43 KDLH 272300 RRA
TAFHIB
TAF
KHIB 272351Z 2800/2824 20003KT P6SM SKC
     FM280200 17005KT P6SM BKN100
     FM280600 16005KT 4SM -SN SCT015 OVC040
     FM281100 13005KT 2SM -SN BKN015 OVC025
     FM281600 13004KT 5SM -SN OVC015
     FM281800 12004KT P6SM VCSH OVC015=

USA.gov is the U.S. government's official web portal to all federal, state and local government web resources and services.